Windom, MN

9:16 AM CDT on July 28, 2017 (GMT -0500)
Windom Municipal

Weather History for KMWM - April, 2013

Change the Weather History Date:

Sunday, April 21, 2013

  Actual Average Record
Temperature  
Mean Temperature 44 °F -  
Max Temperature 53 °F 61 °F 93 °F (1980)
Min Temperature 35 °F 36 °F 20 °F (1959)
Degree Days  
Heating Degree Days 21    
Moisture  
Dew Point 36 °F    
Average Humidity 80    
Maximum Humidity 93    
Minimum Humidity 65    
Precipitation  
Precipitation 0.00 in - - ()
Sea Level Pressure  
Sea Level Pressure 30.10 in    
Wind  
Wind Speed 12 mph (SSE)    
Max Wind Speed 18 mph    
Max Gust Speed 26 mph    
Visibility 10 miles    
Events Rain    
Averages and records for this station are not official NWS values.
T = Trace of Precipitation, MM = Missing Value Source: NWS Daily Summary

Daily Weather History Graph

Daily Weather History Graph

Search for Another Location

Airport or City:

Trip Planner

Search our weather history database for the weather conditions in past years. The results will help you decide how hot, cold, wet, or windy it might be!

Date:

Astronomy

Apr. 21, 2013 Rise Set
Actual Time 6:27 AM CDT 8:11 PM CDT
Civil Twilight 5:56 AM CDT 8:42 PM CDT
Nautical Twilight 5:19 AM CDT 9:19 PM CDT
Astronomical Twilight 4:39 AM CDT 10:00 PM CDT
Moon 3:50 PM CDT (4/21) 3:58 AM CDT (4/21)
Length of Visible Light 14h 46m
Length of Day
13h 44m
Waxing Gibbous, 80% of the Moon is Illuminated
Apr 21
Waxing Gibbous
Apr 25
Full
May 2
Last Quarter
May 9
New
May 17
First Quarter

Hourly Weather History & Observations

Time (CDT) Temp. Windchill Dew Point Humidity Pressure Visibility Wind Dir Wind Speed Gust Speed Precip Events Conditions
12:13 AM 37.4 °F 29.3 °F 28.4 °F 70% 30.21 in 10.0 mi SE 12.7 mph 18.4 mph N/A   Overcast
12:32 AM 37.4 °F 30.3 °F 26.6 °F 65% 30.20 in 10.0 mi SE 10.4 mph 17.3 mph N/A   Overcast
12:52 AM 37.4 °F 31.4 °F 26.6 °F 65% 30.20 in 10.0 mi SE 8.1 mph - N/A   Overcast
1:13 AM 37.4 °F 31.4 °F 28.4 °F 70% 30.20 in 10.0 mi SE 8.1 mph - N/A   Overcast
1:32 AM 37.4 °F 29.8 °F 26.6 °F 65% 30.19 in 10.0 mi SE 11.5 mph 17.3 mph N/A   Overcast
1:52 AM 37.4 °F 29.3 °F 28.4 °F 70% 30.18 in 10.0 mi ESE 12.7 mph - N/A   Overcast
2:13 AM 35.6 °F 27.5 °F 28.4 °F 75% 30.18 in 10.0 mi SE 11.5 mph - N/A   Overcast
2:32 AM 35.6 °F 27.5 °F 28.4 °F 75% 30.17 in 10.0 mi ESE 11.5 mph - N/A   Overcast
2:52 AM 35.6 °F 27.5 °F 28.4 °F 75% 30.16 in 10.0 mi ESE 11.5 mph - N/A   Overcast
3:13 AM 35.6 °F 28.0 °F 28.4 °F 75% 30.16 in 10.0 mi SE 10.4 mph - N/A   Overcast
3:32 AM 35.6 °F 28.0 °F 28.4 °F 75% 30.15 in 10.0 mi ESE 10.4 mph - N/A   Mostly Cloudy
3:52 AM 35.6 °F 28.6 °F 30.2 °F 81% 30.15 in 10.0 mi ESE 9.2 mph - N/A   Scattered Clouds
4:13 AM 35.6 °F 29.2 °F 30.2 °F 81% 30.15 in 10.0 mi ESE 8.1 mph - N/A   Scattered Clouds
4:32 AM 35.6 °F 29.2 °F 30.2 °F 81% 30.15 in 10.0 mi ESE 8.1 mph - N/A   Mostly Cloudy
4:53 AM 35.6 °F 27.1 °F 30.2 °F 81% 30.14 in 10.0 mi SE 12.7 mph - N/A   Overcast
5:13 AM 35.6 °F 27.1 °F 30.2 °F 81% 30.14 in 10.0 mi SE 12.7 mph - N/A   Overcast
5:32 AM 37.4 °F 29.3 °F 30.2 °F 75% 30.14 in 10.0 mi SE 12.7 mph 18.4 mph N/A   Overcast
5:52 AM 37.4 °F 29.8 °F 30.2 °F 75% 30.14 in 10.0 mi SE 11.5 mph 17.3 mph N/A   Overcast
6:13 AM 37.4 °F 29.8 °F 30.2 °F 75% 30.14 in 10.0 mi SE 11.5 mph - N/A   Light Drizzle
6:32 AM 37.4 °F 30.3 °F 30.2 °F 75% 30.14 in 10.0 mi SE 10.4 mph - N/A   Overcast
6:52 AM 35.6 °F 27.5 °F 32.0 °F 87% 30.14 in 10.0 mi SE 11.5 mph 16.1 mph N/A   Mostly Cloudy
7:13 AM 35.6 °F 26.2 °F 32.0 °F 87% 30.13 in 10.0 mi SE 15.0 mph 19.6 mph N/A   Scattered Clouds
7:32 AM 35.6 °F 25.9 °F 32.0 °F 87% 30.13 in 10.0 mi SE 16.1 mph 23.0 mph N/A   Clear
7:52 AM 37.4 °F 29.8 °F 32.0 °F 81% 30.12 in 10.0 mi SE 11.5 mph 19.6 mph N/A   Clear
8:13 AM 37.4 °F 28.5 °F 33.8 °F 87% 30.12 in 10.0 mi SE 15.0 mph 19.6 mph N/A   Clear
8:32 AM 37.4 °F 28.2 °F 33.8 °F 87% 30.11 in 10.0 mi SE 16.1 mph 21.9 mph N/A   Scattered Clouds
8:52 AM 39.2 °F 30.8 °F 33.8 °F 81% 30.10 in 10.0 mi SE 15.0 mph 20.7 mph N/A   Scattered Clouds
9:13 AM 39.2 °F 30.8 °F 33.8 °F 81% 30.10 in 10.0 mi SE 15.0 mph 26.5 mph N/A   Clear
9:32 AM 39.2 °F 29.8 °F 33.8 °F 81% 30.10 in 10.0 mi SE 18.4 mph 24.2 mph N/A   Clear
9:52 AM 41.0 °F 33.1 °F 35.6 °F 81% 30.09 in 10.0 mi SSE 15.0 mph 19.6 mph N/A   Clear
10:13 AM 42.8 °F 35.1 °F 35.6 °F 76% 30.08 in 10.0 mi SE 16.1 mph - N/A   Clear
10:32 AM 44.6 °F 37.2 °F 35.6 °F 71% 30.07 in 10.0 mi SSE 17.3 mph 25.3 mph N/A   Clear
10:52 AM 44.6 °F 37.8 °F 35.6 °F 71% 30.07 in 10.0 mi SSE 15.0 mph 24.2 mph N/A   Clear
11:13 AM 44.6 °F 37.8 °F 35.6 °F 71% 30.06 in 10.0 mi SSE 15.0 mph 21.9 mph N/A   Clear
11:32 AM 44.6 °F 37.4 °F 35.6 °F 71% 30.06 in 10.0 mi SSE 16.1 mph 25.3 mph N/A   Clear
11:52 AM 46.4 °F 39.5 °F 37.4 °F 71% 30.05 in 10.0 mi SSE 17.3 mph 26.5 mph N/A   Clear
12:12 PM 48.2 °F - 37.4 °F 66% 30.04 in 10.0 mi SSE 17.3 mph 24.2 mph N/A   Clear
12:32 PM 48.2 °F - 39.2 °F 71% 30.03 in 10.0 mi South 17.3 mph 25.3 mph N/A   Clear
12:53 PM 48.2 °F - 39.2 °F 71% 30.02 in 10.0 mi South 15.0 mph 24.2 mph N/A   Clear
1:12 PM 50.0 °F - 39.2 °F 66% 30.01 in 10.0 mi South 12.7 mph 24.2 mph N/A   Clear
1:32 PM 50.0 °F - 39.2 °F 66% 30.01 in 10.0 mi South 12.7 mph 21.9 mph N/A   Clear
1:53 PM 51.8 °F - 41.0 °F 67% 30.00 in 10.0 mi South 17.3 mph 24.2 mph N/A   Clear
2:12 PM 51.8 °F - 41.0 °F 67% 30.00 in 10.0 mi South 12.7 mph - N/A   Clear
2:32 PM 53.6 °F - 42.8 °F 67% 30.00 in 10.0 mi South 13.8 mph 19.6 mph N/A   Clear
2:52 PM 53.6 °F - 42.8 °F 67% 30.00 in 10.0 mi South 11.5 mph 18.4 mph N/A   Scattered Clouds
3:12 PM 53.6 °F - 42.8 °F 67% 30.00 in 10.0 mi South 15.0 mph 19.6 mph N/A Rain Light Rain
3:33 PM 53.6 °F - 42.8 °F 67% 30.00 in 10.0 mi South 12.7 mph 19.6 mph N/A Rain Light Rain
3:52 PM 51.8 °F - 44.6 °F 76% 30.00 in 10.0 mi SSW 12.7 mph - N/A Rain Light Rain
4:12 PM 50.0 °F - 44.6 °F 82% 30.01 in 10.0 mi WSW 5.8 mph 10.4 mph N/A   Drizzle
4:32 PM 48.2 °F - 44.6 °F 87% 30.01 in 10.0 mi Calm Calm - N/A   Light Drizzle
4:52 PM 46.4 °F - 44.6 °F 93% 30.01 in 10.0 mi Calm Calm - N/A Rain Light Rain
5:12 PM 46.4 °F 42.9 °F 42.8 °F 87% 30.02 in 10.0 mi WSW 6.9 mph - N/A   Drizzle
5:32 PM 46.4 °F 43.5 °F 42.8 °F 87% 30.02 in 10.0 mi WSW 5.8 mph - N/A   Light Drizzle
5:52 PM 46.4 °F - 42.8 °F 87% 30.01 in 7.0 mi Calm Calm - N/A Rain Light Rain
6:13 PM 46.4 °F 41.9 °F 44.6 °F 93% 30.03 in 10.0 mi West 9.2 mph - N/A   Overcast
6:32 PM 46.4 °F 39.8 °F 42.8 °F 87% 30.04 in 10.0 mi West 16.1 mph - N/A   Overcast
6:52 PM 44.6 °F 37.4 °F 41.0 °F 87% 30.06 in 10.0 mi WNW 16.1 mph - N/A   Overcast
7:13 PM 42.8 °F 35.1 °F 39.2 °F 87% 30.06 in 10.0 mi West 16.1 mph - N/A   Overcast
7:32 PM 42.8 °F 36.6 °F 39.2 °F 87% 30.07 in 10.0 mi West 11.5 mph - N/A   Overcast
7:52 PM 42.8 °F 35.4 °F 39.2 °F 87% 30.08 in 10.0 mi West 15.0 mph - N/A   Overcast
8:13 PM 41.0 °F 33.9 °F 39.2 °F 93% 30.09 in 10.0 mi WNW 12.7 mph - N/A   Overcast
8:32 PM 39.2 °F 31.6 °F 37.4 °F 93% 30.10 in 10.0 mi West 12.7 mph - N/A   Mostly Cloudy
8:52 PM 39.2 °F 30.8 °F 37.4 °F 93% 30.11 in 10.0 mi WNW 15.0 mph - N/A   Mostly Cloudy
9:13 PM 37.4 °F 30.3 °F 35.6 °F 93% 30.12 in 10.0 mi WNW 10.4 mph - N/A   Mostly Cloudy
9:32 PM 37.4 °F 29.3 °F 35.6 °F 93% 30.14 in 10.0 mi WNW 12.7 mph - N/A   Mostly Cloudy
9:52 PM 37.4 °F 28.5 °F 35.6 °F 93% 30.14 in 10.0 mi NW 15.0 mph 21.9 mph N/A   Overcast
10:13 PM 37.4 °F 28.9 °F 35.6 °F 93% 30.15 in 10.0 mi NW 13.8 mph - N/A   Overcast
10:32 PM 37.4 °F 29.8 °F 35.6 °F 93% 30.15 in 10.0 mi NW 11.5 mph - N/A   Overcast
10:52 PM 37.4 °F 30.3 °F 35.6 °F 93% 30.15 in 10.0 mi NW 10.4 mph - N/A   Overcast
11:13 PM 37.4 °F 29.3 °F 35.6 °F 93% 30.16 in 10.0 mi NW 12.7 mph - N/A   Overcast
11:32 PM 35.6 °F 27.5 °F 33.8 °F 93% 30.16 in 10.0 mi NW 11.5 mph - N/A   Overcast
11:52 PM 35.6 °F 28.0 °F 33.8 °F 93% 30.16 in 10.0 mi NW 10.4 mph - N/A   Overcast